Time;durP1;ratioP1;P1;durP2;ratioP2;P2;SDS_P1;SDS_P2;PMS_P1;PMS_P2;Temp;Humidity;BMP_temperature;BMP_pressure;BME280_temperature;BME280_humidity;BME280_pressure;Samples;Min_cycle;Max_cycle;Signal;HPM_P1;HPM_P2
2022/01/08 00:00:21;;;;;;;37.35;22.45;;;1.90;99.90;;;;;;4988482;28;20086;-89
2022/01/08 00:02:48;;;;;;;36.45;23.70;;;1.90;99.90;;;;;;5004857;28;20750;-89
2022/01/08 00:05:18;;;;;;;38.50;23.60;;;1.90;99.90;;;;;;4996926;28;20056;-89
2022/01/08 00:07:45;;;;;;;33.92;22.95;;;1.90;99.90;;;;;;5003569;28;20044;-90
2022/01/08 00:10:11;;;;;;;43.20;25.27;;;1.90;99.90;;;;;;5019215;28;20053;-90
2022/01/08 00:12:40;;;;;;;42.47;25.73;;;1.90;99.90;;;;;;4989621;27;20076;-90
2022/01/08 00:15:07;;;;;;;44.35;26.40;;;2.00;99.90;;;;;;5025574;27;20382;-91
2022/01/08 00:17:35;;;;;;;39.85;25.50;;;2.00;99.90;;;;;;5007106;27;20497;-91
2022/01/08 00:20:01;;;;;;;38.63;26.13;;;2.10;99.90;;;;;;5025710;27;20123;-90
2022/01/08 00:22:29;;;;;;;41.25;27.75;;;2.10;99.90;;;;;;5008848;27;20428;-90
2022/01/08 00:24:56;;;;;;;39.75;26.55;;;2.10;99.90;;;;;;5020670;27;20112;-90
2022/01/08 00:27:24;;;;;;;43.22;26.30;;;2.10;99.90;;;;;;5022179;27;20073;-90
2022/01/08 00:29:52;;;;;;;44.75;28.45;;;2.20;99.90;;;;;;5016658;27;20047;-92
2022/01/08 00:32:18;;;;;;;40.15;27.05;;;2.20;99.90;;;;;;5012718;27;20082;-90
2022/01/08 00:34:46;;;;;;;40.40;26.75;;;2.20;99.90;;;;;;5008648;27;20153;-90
2022/01/08 00:37:12;;;;;;;38.08;25.88;;;2.20;99.90;;;;;;5017701;27;20126;-90
2022/01/08 00:39:39;;;;;;;43.75;27.63;;;2.10;99.90;;;;;;5011195;27;20403;-89
2022/01/08 00:42:05;;;;;;;38.53;26.48;;;1.90;99.90;;;;;;5031532;27;20081;-89
2022/01/08 00:44:31;;;;;;;39.20;25.25;;;1.90;99.90;;;;;;4985436;27;20542;-89
2022/01/08 00:46:57;;;;;;;38.70;24.45;;;1.90;99.90;;;;;;4998052;27;20039;-88
2022/01/08 00:49:24;;;;;;;40.75;25.17;;;2.00;99.90;;;;;;5010112;27;20047;-90
2022/01/08 00:51:53;;;;;;;44.92;27.40;;;1.90;99.90;;;;;;4982039;27;20111;-89
2022/01/08 00:54:18;;;;;;;46.97;29.15;;;2.00;99.90;;;;;;5000569;27;20416;-87
2022/01/08 00:56:44;;;;;;;46.83;28.40;;;2.00;99.90;;;;;;5017930;27;20522;-89
2022/01/08 00:59:10;;;;;;;44.58;29.08;;;2.00;99.90;;;;;;5001504;27;20420;-91
2022/01/08 01:01:36;;;;;;;45.30;28.33;;;2.10;99.90;;;;;;5010728;28;20055;-90
2022/01/08 01:04:05;;;;;;;49.67;29.33;;;2.20;99.90;;;;;;5002530;27;20039;-90
2022/01/08 01:06:35;;;;;;;42.20;28.65;;;2.10;99.90;;;;;;5001779;27;20855;-91
2022/01/08 01:09:02;;;;;;;47.42;27.27;;;2.20;99.90;;;;;;4997859;27;20047;-91
2022/01/08 01:11:33;;;;;;;48.20;30.88;;;2.10;99.90;;;;;;4988112;27;20741;-89
2022/01/08 01:13:59;;;;;;;44.15;28.20;;;2.20;99.90;;;;;;4985147;27;20061;-91
2022/01/08 01:16:25;;;;;;;40.40;26.80;;;2.10;99.90;;;;;;5004221;27;20126;-91
2022/01/08 01:18:53;;;;;;;43.53;27.90;;;2.20;99.90;;;;;;5004423;27;20031;-88
2022/01/08 01:21:19;;;;;;;43.17;26.90;;;2.10;99.90;;;;;;5005357;27;20426;-90
2022/01/08 01:23:48;;;;;;;40.75;25.10;;;2.10;99.90;;;;;;4995909;27;20799;-89
2022/01/08 01:26:19;;;;;;;39.25;26.02;;;2.10;99.90;;;;;;5016337;27;20055;-89
2022/01/08 01:47:05;;;;;;;34.20;22.10;;;1.70;99.90;;;;;;5027274;27;20043;-90
2022/01/08 01:49:36;;;;;;;35.90;25.23;;;1.80;99.90;;;;;;5006855;27;20046;-90
2022/01/08 01:52:07;;;;;;;33.00;23.70;;;1.70;99.90;;;;;;5007531;28;20067;-89
2022/01/08 01:54:39;;;;;;;33.38;22.63;;;1.50;99.90;;;;;;5015119;27;20046;-89
2022/01/08 01:57:10;;;;;;;31.73;23.25;;;1.50;99.90;;;;;;5006390;27;20157;-90
2022/01/08 01:59:36;;;;;;;36.33;22.83;;;1.50;99.90;;;;;;5007733;27;20128;-89
2022/01/08 02:02:05;;;;;;;33.10;23.60;;;1.40;99.90;;;;;;5007465;27;20055;-89
2022/01/08 02:04:31;;;;;;;37.55;26.00;;;1.40;99.90;;;;;;4989372;27;20407;-89
2022/01/08 02:06:59;;;;;;;34.85;23.15;;;1.40;99.90;;;;;;5006969;27;20402;-88
2022/01/08 02:09:25;;;;;;;36.65;23.80;;;1.40;99.90;;;;;;5003568;27;20115;-90
2022/01/08 02:11:59;;;;;;;36.30;23.75;;;1.40;99.90;;;;;;4983581;27;20039;-91
2022/01/08 02:14:25;;;;;;;;;;;1.40;99.90;;;;;;4993919;28;20567;-89
2022/01/08 02:16:53;;;;;;;33.47;20.08;;;1.50;99.90;;;;;;4988441;28;19924;-89
2022/01/08 02:19:20;;;;;;;34.83;20.83;;;1.50;99.90;;;;;;4995529;28;20049;-90
2022/01/08 02:21:54;;;;;;;29.27;20.42;;;1.50;99.90;;;;;;5011490;28;20048;-89
2022/01/08 02:24:21;;;;;;;31.95;20.58;;;1.50;99.90;;;;;;4985827;28;20150;-89
2022/01/08 02:26:47;;;;;;;31.30;20.17;;;1.60;99.90;;;;;;4987247;28;20938;-89
2022/01/08 02:29:20;;;;;;;32.22;21.20;;;1.50;99.90;;;;;;4991483;28;20048;-91
2022/01/08 02:32:04;;;;;;;36.13;21.60;;;1.60;99.90;;;;;;4993466;28;20052;-89
2022/01/08 02:34:31;;;;;;;32.35;21.10;;;1.50;99.90;;;;;;4998069;28;20815;-90
2022/01/08 02:36:58;;;;;;;34.33;19.60;;;1.60;99.90;;;;;;4985944;28;20052;-91
2022/01/08 02:39:25;;;;;;;32.30;19.50;;;1.60;99.90;;;;;;4983423;28;20582;-91
2022/01/08 02:41:56;;;;;;;31.38;19.42;;;1.60;99.90;;;;;;4993959;28;20397;-89
2022/01/08 02:44:28;;;;;;;30.02;18.75;;;1.50;99.90;;;;;;4989514;28;20059;-89
2022/01/08 02:46:54;;;;;;;28.85;19.17;;;1.40;99.90;;;;;;5004453;28;20051;-90
2022/01/08 02:49:37;;;;;;;30.52;19.00;;;1.50;99.90;;;;;;4996921;28;20064;-89
2022/01/08 02:52:05;;;;;;;27.95;18.33;;;1.40;99.90;;;;;;4973429;28;20509;-89
2022/01/08 02:54:30;;;;;;;28.33;18.88;;;1.40;99.90;;;;;;4986919;28;20044;-91
2022/01/08 02:56:59;;;;;;;32.22;19.35;;;1.40;99.90;;;;;;4988612;28;20608;-89
2022/01/08 02:59:25;;;;;;;33.45;19.50;;;1.50;99.90;;;;;;4977660;28;20040;-90
2022/01/08 03:01:52;;;;;;;31.23;19.63;;;1.50;99.90;;;;;;4990643;28;20048;-90
2022/01/08 03:04:19;;;;;;;29.42;18.40;;;1.50;99.90;;;;;;4987053;28;20508;-90
2022/01/08 03:06:45;;;;;;;30.27;18.63;;;1.50;99.90;;;;;;4994000;28;20522;-90
2022/01/08 03:09:10;;;;;;;29.13;18.70;;;1.50;99.90;;;;;;4980474;28;20939;-90
2022/01/08 03:11:38;;;;;;;28.48;18.70;;;1.50;99.90;;;;;;4955470;28;20054;-90
2022/01/08 03:14:05;;;;;;;29.92;18.02;;;1.50;99.90;;;;;;4992193;28;20056;-89
2022/01/08 03:16:31;;;;;;;27.52;16.45;;;1.50;99.90;;;;;;4990443;28;20128;-89
2022/01/08 03:18:57;;;;;;;26.52;16.50;;;1.50;99.90;;;;;;4986659;28;20044;-90
2022/01/08 03:21:23;;;;;;;27.48;16.92;;;1.50;99.90;;;;;;5005617;28;20052;-89
2022/01/08 03:23:57;;;;;;;28.90;17.20;;;1.50;99.90;;;;;;5020955;28;20066;-90
2022/01/08 03:26:24;;;;;;;;;;;1.60;99.90;;;;;;5008896;28;21057;-92
2022/01/08 03:28:50;;;;;;;28.23;15.57;;;1.50;99.90;;;;;;5000972;28;19961;-90
2022/01/08 03:31:18;;;;;;;29.10;16.15;;;1.60;99.90;;;;;;5004964;28;20040;-88
2022/01/08 03:33:45;;;;;;;25.90;16.88;;;1.40;99.90;;;;;;4996554;28;20127;-90
2022/01/08 03:36:12;;;;;;;26.60;14.95;;;1.40;99.90;;;;;;5018491;28;20464;-89
2022/01/08 03:38:38;;;;;;;25.75;15.45;;;1.40;99.90;;;;;;5003307;28;20723;-90
2022/01/08 03:41:04;;;;;;;26.35;15.18;;;1.40;99.90;;;;;;5014073;28;20574;-90
2022/01/08 03:43:30;;;;;;;27.13;15.18;;;1.40;99.90;;;;;;4993413;28;20060;-90
2022/01/08 03:46:01;;;;;;;30.38;16.52;;;1.40;99.90;;;;;;4997564;28;20155;-90
2022/01/08 03:48:32;;;;;;;26.42;16.48;;;1.30;99.90;;;;;;4987406;28;20124;-91
2022/01/08 03:50:59;;;;;;;25.67;16.40;;;1.30;99.90;;;;;;4995162;28;20882;-89
2022/01/08 03:53:26;;;;;;;31.50;18.63;;;1.30;99.90;;;;;;5020709;28;20050;-89
2022/01/08 03:55:53;;;;;;;32.05;18.67;;;1.40;99.90;;;;;;5016324;28;20519;-89
2022/01/08 03:58:20;;;;;;;32.38;19.33;;;1.20;99.90;;;;;;4996777;28;20125;-89
2022/01/08 04:00:47;;;;;;;30.30;19.00;;;1.30;99.90;;;;;;5007888;28;20040;-89
2022/01/08 04:03:13;;;;;;;29.42;18.60;;;1.30;99.90;;;;;;4984897;28;20431;-90
2022/01/08 04:05:39;;;;;;;31.20;19.45;;;1.30;99.90;;;;;;5001499;28;20299;-90
2022/01/08 04:08:05;;;;;;;33.00;20.15;;;1.30;99.90;;;;;;4982514;28;20439;-89
2022/01/08 04:10:31;;;;;;;36.83;21.48;;;1.30;99.90;;;;;;4992370;28;20075;-89
2022/01/08 04:13:03;;;;;;;28.98;18.98;;;1.30;99.90;;;;;;4996720;28;20188;-88
2022/01/08 04:15:36;;;;;;;29.95;19.17;;;1.40;99.90;;;;;;4985026;28;20054;-88
2022/01/08 04:18:02;;;;;;;31.35;19.33;;;1.40;99.90;;;;;;5006926;28;20538;-89
2022/01/08 04:20:28;;;;;;;28.48;18.77;;;1.40;99.90;;;;;;4989503;28;20054;-90
2022/01/08 04:23:02;;;;;;;27.85;18.00;;;1.30;99.90;;;;;;4989138;28;20804;-89
2022/01/08 04:25:28;;;;;;;30.38;19.52;;;1.30;99.90;;;;;;5024062;27;20042;-89
2022/01/08 04:27:56;;;;;;;30.67;19.48;;;1.40;99.90;;;;;;5020209;27;20035;-88
2022/01/08 04:30:21;;;;;;;28.45;18.70;;;1.30;99.90;;;;;;5002427;27;20387;-89
2022/01/08 04:32:50;;;;;;;31.10;20.02;;;1.10;99.90;;;;;;5016761;27;20047;-88
2022/01/08 04:35:16;;;;;;;28.25;19.20;;;1.10;99.90;;;;;;5006429;27;20510;-88
2022/01/08 04:37:42;;;;;;;30.88;20.45;;;1.00;99.90;;;;;;4975455;27;20044;-86
2022/01/08 04:40:10;;;;;;;32.53;18.95;;;1.00;99.90;;;;;;4981308;27;20070;-88
2022/01/08 04:42:39;;;;;;;30.40;19.45;;;0.90;99.90;;;;;;5011121;27;20070;-87
2022/01/08 04:45:05;;;;;;;29.75;19.65;;;0.90;99.90;;;;;;5005539;27;20548;-89
2022/01/08 04:47:31;;;;;;;32.80;21.25;;;1.00;99.90;;;;;;4990529;27;20134;-89
2022/01/08 04:49:57;;;;;;;30.75;18.80;;;1.10;99.90;;;;;;4985564;27;20394;-89
2022/01/08 04:52:23;;;;;;;30.58;18.33;;;1.20;99.90;;;;;;5011429;27;20050;-88
2022/01/08 04:54:51;;;;;;;26.55;17.67;;;1.10;99.90;;;;;;4979508;27;20050;-87
2022/01/08 04:57:17;;;;;;;32.08;18.63;;;1.10;99.90;;;;;;5008805;27;20104;-89
2022/01/08 04:59:43;;;;;;;28.83;18.05;;;1.20;99.90;;;;;;4997071;27;20431;-89
2022/01/08 05:02:08;;;;;;;31.58;18.77;;;1.20;99.90;;;;;;4972505;27;20435;-86
2022/01/08 05:04:45;;;;;;;28.83;19.20;;;1.10;99.90;;;;;;4978676;27;20456;-87
2022/01/08 05:07:11;;;;;;;26.33;18.02;;;1.00;99.90;;;;;;5008197;27;20046;-88
2022/01/08 05:09:36;;;;;;;27.45;17.55;;;1.00;99.90;;;;;;4972540;27;20378;-88
2022/01/08 05:12:03;;;;;;;29.40;17.42;;;0.80;99.90;;;;;;5020162;27;20525;-88
2022/01/08 05:14:29;;;;;;;27.85;17.52;;;0.80;99.90;;;;;;5019358;27;20078;-88
2022/01/08 05:17:02;;;;;;;30.83;19.02;;;0.80;99.90;;;;;;5019096;28;20216;-88
2022/01/08 05:19:42;;;;;;;29.58;18.45;;;0.70;99.90;;;;;;4995516;27;20043;-88
2022/01/08 05:22:17;;;;;;;29.83;18.30;;;0.60;99.90;;;;;;4993869;27;20043;-87
2022/01/08 05:24:43;;;;;;;26.95;17.58;;;0.60;99.90;;;;;;5037727;27;20599;-88
2022/01/08 05:27:12;;;;;;;28.85;18.60;;;0.70;99.90;;;;;;4979756;27;20068;-88
2022/01/08 05:29:41;;;;;;;30.65;18.65;;;0.60;99.90;;;;;;4986412;27;20849;-87
2022/01/08 05:32:16;;;;;;;31.88;19.38;;;0.80;99.90;;;;;;5015387;27;20389;-88
2022/01/08 05:34:46;;;;;;;31.63;20.20;;;0.80;99.90;;;;;;4989654;27;20534;-87
2022/01/08 05:37:12;;;;;;;36.85;20.33;;;0.70;99.90;;;;;;5019246;27;20548;-88
2022/01/08 05:39:39;;;;;;;38.38;22.13;;;0.70;99.90;;;;;;5000060;27;20063;-88
2022/01/08 05:42:05;;;;;;;34.13;20.73;;;0.70;99.90;;;;;;5014725;27;20047;-88
2022/01/08 05:44:31;;;;;;;33.45;20.80;;;0.70;99.90;;;;;;5003843;27;20047;-87
2022/01/08 05:46:56;;;;;;;34.42;21.67;;;0.70;99.90;;;;;;5001725;27;20051;-88
2022/01/08 05:49:23;;;;;;;36.10;21.70;;;0.70;99.90;;;;;;4987581;27;20239;-87
2022/01/08 05:51:48;;;;;;;33.83;21.25;;;0.70;99.90;;;;;;4991216;27;20564;-88
2022/01/08 05:54:14;;;;;;;37.60;21.80;;;0.70;99.90;;;;;;4975140;27;20065;-88
2022/01/08 05:56:43;;;;;;;34.97;20.50;;;0.70;99.90;;;;;;5015929;27;20496;-88
2022/01/08 05:59:11;;;;;;;35.85;22.05;;;0.70;99.90;;;;;;5015866;27;20047;-88
2022/01/08 06:01:37;;;;;;;34.90;21.17;;;0.70;99.90;;;;;;5006469;28;20414;-87
2022/01/08 06:04:03;;;;;;;40.08;21.45;;;0.70;99.90;;;;;;4984258;27;20151;-88
2022/01/08 06:06:29;;;;;;;38.13;22.45;;;0.70;99.90;;;;;;5017853;27;20043;-87
2022/01/08 06:08:58;;;;;;;37.58;21.60;;;0.80;99.90;;;;;;4995059;27;20043;-87
2022/01/08 06:11:24;;;;;;;38.30;21.67;;;0.70;99.90;;;;;;5015173;27;20035;-88
2022/01/08 06:13:54;;;;;;;38.83;20.73;;;0.70;99.90;;;;;;4993721;27;20415;-87
2022/01/08 06:16:20;;;;;;;39.65;21.10;;;0.80;99.90;;;;;;4981193;27;20613;-87
2022/01/08 06:18:46;;;;;;;36.65;21.33;;;0.70;99.90;;;;;;4973650;27;20437;-87
2022/01/08 06:21:14;;;;;;;33.72;21.15;;;0.70;99.90;;;;;;5000363;27;20095;-88
2022/01/08 06:23:40;;;;;;;34.97;20.88;;;0.80;99.90;;;;;;5019367;27;20043;-86
2022/01/08 06:26:08;;;;;;;36.70;22.20;;;0.80;99.90;;;;;;4991368;27;20043;-87
2022/01/08 06:28:34;;;;;;;33.85;21.48;;;0.80;99.90;;;;;;5017198;27;20051;-87
2022/01/08 06:31:00;;;;;;;35.20;21.75;;;0.70;99.90;;;;;;4996265;27;20035;-87
2022/01/08 06:33:26;;;;;;;39.03;21.55;;;0.70;99.90;;;;;;4997916;27;20540;-88
2022/01/08 06:35:52;;;;;;;34.60;21.55;;;0.70;99.90;;;;;;4972477;27;20050;-87
2022/01/08 06:38:20;;;;;;;34.78;22.02;;;0.60;99.90;;;;;;5000359;28;20081;-88
2022/01/08 06:40:46;;;;;;;31.83;21.17;;;0.50;99.90;;;;;;5000410;27;20048;-88
2022/01/08 06:43:13;;;;;;;33.50;21.55;;;0.50;99.90;;;;;;4998356;27;20508;-87
2022/01/08 06:45:41;;;;;;;36.47;20.17;;;0.60;99.90;;;;;;4985379;27;20055;-88
2022/01/08 06:48:07;;;;;;;37.55;21.42;;;0.60;99.90;;;;;;5002321;27;20380;-86
2022/01/08 06:50:32;;;;;;;31.52;20.27;;;0.60;99.90;;;;;;4985356;27;20054;-88
2022/01/08 06:53:01;;;;;;;31.13;20.10;;;0.50;99.90;;;;;;4988623;28;20048;-87
2022/01/08 06:55:27;;;;;;;33.03;20.42;;;0.60;99.90;;;;;;5001641;27;20933;-87
2022/01/08 06:57:56;;;;;;;36.00;20.90;;;0.60;99.90;;;;;;5000320;27;20045;-87
2022/01/08 07:00:22;;;;;;;36.70;21.73;;;0.50;99.90;;;;;;5008041;27;20044;-88
2022/01/08 07:02:48;;;;;;;38.03;21.55;;;0.60;99.90;;;;;;4988393;28;20117;-88
2022/01/08 07:05:14;;;;;;;35.25;21.23;;;0.60;99.90;;;;;;4985601;27;20571;-87
2022/01/08 07:07:40;;;;;;;33.72;21.38;;;0.60;99.90;;;;;;5014790;27;20421;-87
2022/01/08 07:10:07;;;;;;;35.60;21.17;;;0.60;99.90;;;;;;4997476;27;20982;-88
2022/01/08 07:12:33;;;;;;;35.35;20.98;;;0.50;99.90;;;;;;5000075;27;20274;-88
2022/01/08 07:14:59;;;;;;;35.60;20.17;;;0.50;99.90;;;;;;5013852;27;20640;-87
2022/01/08 07:17:24;;;;;;;37.63;21.23;;;0.60;99.90;;;;;;4989055;28;20142;-87
2022/01/08 07:19:50;;;;;;;40.00;20.33;;;0.60;99.90;;;;;;5014420;28;20121;-84
2022/01/08 07:22:16;;;;;;;35.28;19.77;;;0.50;99.90;;;;;;4996897;28;20075;-87
2022/01/08 07:24:42;;;;;;;35.28;19.98;;;0.50;99.90;;;;;;5005543;28;20576;-87
2022/01/08 07:27:08;;;;;;;37.50;19.17;;;0.50;99.90;;;;;;4986729;28;20047;-87
2022/01/08 07:29:34;;;;;;;34.53;20.08;;;0.50;99.90;;;;;;4998709;28;20218;-86
2022/01/08 07:31:59;;;;;;;30.42;18.92;;;0.50;99.90;;;;;;4995641;28;20427;-86
2022/01/08 07:34:25;;;;;;;28.75;18.40;;;0.50;99.90;;;;;;4976536;28;20557;-87
2022/01/08 07:36:54;;;;;;;33.88;18.58;;;0.50;99.90;;;;;;4996965;28;20046;-86
2022/01/08 07:39:20;;;;;;;29.63;18.75;;;0.60;99.90;;;;;;5008966;28;20892;-87
2022/01/08 07:41:46;;;;;;;29.77;19.35;;;0.50;99.90;;;;;;4968023;28;20484;-87
2022/01/08 07:44:12;;;;;;;32.22;18.88;;;0.60;99.90;;;;;;5012343;28;20101;-86
2022/01/08 07:46:39;;;;;;;30.92;18.63;;;0.60;99.90;;;;;;4995319;28;20056;-87
2022/01/08 07:49:08;;;;;;;34.88;20.05;;;0.60;99.90;;;;;;5012534;28;20196;-86
2022/01/08 07:51:34;;;;;;;31.67;19.30;;;0.60;99.90;;;;;;4992857;28;20047;-87
2022/01/08 07:54:02;;;;;;;32.38;18.58;;;0.70;99.90;;;;;;4983471;28;20103;-88
2022/01/08 07:56:28;;;;;;;35.10;19.15;;;0.70;99.90;;;;;;4982514;28;20169;-86
2022/01/08 07:58:53;;;;;;;28.70;18.27;;;0.70;99.90;;;;;;4989677;27;20687;-86
2022/01/08 08:01:21;;;;;;;33.00;18.92;;;0.80;99.90;;;;;;4984422;27;20823;-84
2022/01/08 08:03:47;;;;;;;32.63;19.15;;;0.60;99.90;;;;;;5002387;27;20412;-87
2022/01/08 08:06:13;;;;;;;32.00;18.58;;;0.70;99.90;;;;;;4999295;27;20077;-87
2022/01/08 08:08:39;;;;;;;27.30;17.90;;;0.70;99.90;;;;;;5019986;27;20509;-86
2022/01/08 08:11:05;;;;;;;29.63;18.38;;;0.70;99.90;;;;;;5017399;27;20403;-85
2022/01/08 08:13:32;;;;;;;31.05;18.75;;;0.80;99.90;;;;;;5004175;28;20060;-84
2022/01/08 08:15:57;;;;;;;33.00;19.35;;;0.80;99.90;;;;;;4984617;28;20049;-87
2022/01/08 08:18:23;;;;;;;32.55;20.00;;;0.90;99.90;;;;;;4967507;28;20044;-85
2022/01/08 08:20:52;;;;;;;35.25;20.83;;;0.80;99.90;;;;;;4964057;28;20907;-85
2022/01/08 08:23:18;;;;;;;35.13;21.23;;;1.00;99.90;;;;;;4989627;28;20048;-86
2022/01/08 08:25:44;;;;;;;34.13;21.98;;;1.00;99.90;;;;;;4982045;28;20797;-85
2022/01/08 08:28:10;;;;;;;35.85;22.70;;;1.00;99.90;;;;;;4979223;28;20036;-87
2022/01/08 08:30:35;;;;;;;34.20;21.70;;;1.10;99.90;;;;;;4979429;28;20048;-86
2022/01/08 08:33:02;;;;;;;36.70;21.85;;;1.10;99.90;;;;;;4966486;28;20048;-85
2022/01/08 08:35:28;;;;;;;34.60;21.77;;;1.10;99.90;;;;;;4989011;28;20048;-86
2022/01/08 08:37:54;;;;;;;32.63;22.40;;;1.20;99.90;;;;;;4990578;28;20047;-87
2022/01/08 08:40:22;;;;;;;31.27;21.55;;;1.30;99.90;;;;;;4979940;28;20400;-87
2022/01/08 08:42:48;;;;;;;37.33;22.27;;;1.30;99.90;;;;;;4972385;28;20040;-90
2022/01/08 08:45:14;;;;;;;32.80;22.17;;;1.40;99.90;;;;;;4991633;28;20416;-87
2022/01/08 08:47:41;;;;;;;33.53;22.20;;;1.30;99.90;;;;;;4990256;28;20048;-88
2022/01/08 08:50:10;;;;;;;33.80;22.40;;;1.40;99.90;;;;;;5008404;28;20045;-89
2022/01/08 08:52:36;;;;;;;37.08;22.30;;;1.40;99.90;;;;;;4987427;28;20055;-88
2022/01/08 08:55:06;;;;;;;35.17;22.40;;;1.60;99.90;;;;;;4992132;28;20485;-89
2022/01/08 08:57:35;;;;;;;31.08;20.75;;;1.70;99.90;;;;;;4983291;28;20055;-93
2022/01/08 09:00:02;;;;;;;35.15;21.33;;;1.70;99.90;;;;;;4989312;28;20444;-87
2022/01/08 09:02:28;;;;;;;29.58;20.23;;;1.70;99.90;;;;;;4990820;28;20540;-88
2022/01/08 09:04:54;;;;;;;32.28;20.27;;;1.80;99.90;;;;;;4973132;28;20048;-87
2022/01/08 09:07:20;;;;;;;29.85;20.52;;;1.70;99.90;;;;;;4978160;28;20070;-88
2022/01/08 09:09:46;;;;;;;28.20;19.30;;;1.70;99.90;;;;;;4980861;28;20044;-88
2022/01/08 09:12:15;;;;;;;27.33;19.33;;;1.80;99.90;;;;;;5004296;28;20066;-91
2022/01/08 09:14:43;;;;;;;30.80;19.45;;;1.80;99.90;;;;;;4963885;28;20164;-84
2022/01/08 09:17:10;;;;;;;31.33;18.40;;;1.90;99.90;;;;;;4997110;28;20207;-89
2022/01/08 09:19:36;;;;;;;29.92;19.13;;;2.00;99.90;;;;;;4994834;28;20824;-89
2022/01/08 09:22:04;;;;;;;25.90;16.92;;;2.10;99.90;;;;;;4990589;28;20048;-89
2022/01/08 09:24:32;;;;;;;24.67;17.80;;;2.20;99.90;;;;;;4995537;28;20064;-86
2022/01/08 09:26:58;;;;;;;24.80;16.23;;;2.30;99.90;;;;;;4994352;28;20048;-89
2022/01/08 09:29:23;;;;;;;27.70;17.58;;;2.40;99.90;;;;;;4983267;28;20044;-88
2022/01/08 09:31:49;;;;;;;23.73;16.10;;;2.50;99.90;;;;;;4999784;28;20114;-89
2022/01/08 09:34:15;;;;;;;26.35;16.75;;;2.60;99.90;;;;;;5000817;28;20373;-88
2022/01/08 09:36:43;;;;;;;21.90;15.40;;;2.60;99.90;;;;;;4989359;28;20477;-90
2022/01/08 09:39:10;;;;;;;20.15;14.35;;;2.70;99.90;;;;;;4986406;28;20055;-91
2022/01/08 09:41:36;;;;;;;24.05;15.40;;;2.70;99.90;;;;;;4997443;28;20636;-86
2022/01/08 09:44:05;;;;;;;22.67;15.23;;;2.70;99.90;;;;;;5001439;28;20755;-88
2022/01/08 09:46:31;;;;;;;19.55;13.57;;;2.60;99.90;;;;;;4983738;28;20673;-89
2022/01/08 09:48:57;;;;;;;21.95;13.73;;;2.60;99.90;;;;;;4979315;28;20059;-86
2022/01/08 09:51:26;;;;;;;22.35;14.50;;;2.60;99.90;;;;;;4990065;28;20032;-90
2022/01/08 09:53:52;;;;;;;23.02;14.40;;;2.70;99.90;;;;;;4989346;28;20052;-88
2022/01/08 09:56:18;;;;;;;23.80;15.57;;;2.70;99.90;;;;;;4961909;28;20048;-91
2022/01/08 09:58:47;;;;;;;23.00;14.95;;;2.80;99.90;;;;;;4977059;28;20355;-88
2022/01/08 10:01:29;;;;;;;22.20;13.73;;;2.80;99.90;;;;;;4993234;28;20548;-91
2022/01/08 10:03:56;;;;;;;24.88;14.40;;;2.70;99.90;;;;;;4999664;28;20282;-92
2022/01/08 10:06:24;;;;;;;22.88;15.05;;;2.70;99.90;;;;;;5001420;28;20104;-90
2022/01/08 10:08:51;;;;;;;22.52;15.23;;;2.90;99.90;;;;;;4987363;28;20127;-87
2022/01/08 10:11:19;;;;;;;22.02;15.55;;;3.00;99.90;;;;;;4977377;28;20051;-90
2022/01/08 10:13:47;;;;;;;21.80;15.45;;;3.00;99.90;;;;;;4999732;27;20423;-89
2022/01/08 10:19:01;;;;;;;26.27;15.82;;;3.00;99.90;;;;;;5021742;27;20047;-88
2022/01/08 10:21:32;;;;;;;25.30;15.95;;;3.00;99.90;;;;;;5005853;27;20514;-87
2022/01/08 10:24:05;;;;;;;21.33;15.63;;;2.90;99.90;;;;;;5007236;27;20047;-89
2022/01/08 10:26:37;;;;;;;24.23;15.15;;;3.00;99.90;;;;;;5017811;27;20043;-93
2022/01/08 10:29:11;;;;;;;22.55;15.13;;;3.00;99.90;;;;;;5015107;27;20039;-90
2022/01/08 10:31:50;;;;;;;27.15;17.25;;;3.00;99.90;;;;;;5031030;28;20104;-96
2022/01/08 10:34:28;;;;;;;24.70;15.98;;;3.00;99.90;;;;;;5009325;27;20039;-91
2022/01/08 10:36:54;;;;;;;23.00;16.55;;;3.00;99.90;;;;;;5010925;27;20639;-90
2022/01/08 10:39:29;;;;;;;22.70;15.60;;;3.00;99.90;;;;;;5033819;27;20078;-88
2022/01/08 10:41:58;;;;;;;26.88;17.13;;;3.10;99.90;;;;;;5033585;27;20039;-92
2022/01/08 10:44:31;;;;;;;24.65;16.75;;;3.10;99.90;;;;;;5026109;27;20071;-91
2022/01/08 10:47:13;;;;;;;29.48;19.02;;;3.10;99.90;;;;;;5019736;27;20074;-91
2022/01/08 10:50:05;;;;;;;26.17;19.85;;;3.30;99.90;;;;;;5018160;27;20056;-92
2022/01/08 10:52:47;;;;;;;29.13;20.48;;;3.40;99.90;;;;;;5021252;27;20348;-91
2022/01/08 10:55:13;;;;;;;27.38;19.55;;;3.20;99.90;;;;;;5005140;27;21751;-88
2022/01/08 10:57:45;;;;;;;28.50;20.30;;;3.30;99.90;;;;;;5015306;27;20046;-89
2022/01/08 11:00:15;;;;;;;26.98;19.85;;;3.30;99.90;;;;;;5022219;28;20362;-94
2022/01/08 11:02:43;;;;;;;28.58;17.92;;;3.30;99.90;;;;;;5012044;27;20096;-90
2022/01/08 11:05:10;;;;;;;28.30;18.08;;;3.40;99.90;;;;;;5005529;28;20055;-91
2022/01/08 11:07:41;;;;;;;28.15;19.27;;;3.40;99.90;;;;;;5014389;27;20043;-93
2022/01/08 11:10:19;;;;;;;27.67;19.23;;;3.50;99.90;;;;;;5019921;27;20556;-93
2022/01/08 11:12:51;;;;;;;24.75;18.90;;;3.60;99.90;;;;;;5018388;28;20047;-93
2022/01/08 11:15:35;;;;;;;27.10;19.27;;;3.70;99.90;;;;;;5014049;28;20368;-90
2022/01/08 11:18:03;;;;;;;28.98;19.25;;;3.80;99.90;;;;;;5008705;28;20058;-89
2022/01/08 11:20:32;;;;;;;27.75;19.70;;;3.90;99.90;;;;;;5012355;28;20048;-88
2022/01/08 11:23:02;;;;;;;27.33;18.75;;;3.80;99.90;;;;;;4985177;28;20048;-95
2022/01/08 11:25:38;;;;;;;28.42;18.80;;;3.90;99.90;;;;;;4998888;28;20205;-91
2022/01/08 11:28:07;;;;;;;25.80;19.52;;;3.80;99.90;;;;;;5006315;28;20042;-91
2022/01/08 11:30:36;;;;;;;29.67;19.88;;;3.80;99.90;;;;;;5005364;28;20048;-87
2022/01/08 11:33:08;;;;;;;26.85;18.80;;;3.80;99.90;;;;;;4997658;28;20552;-93
2022/01/08 11:35:37;;;;;;;27.88;19.98;;;3.70;99.90;;;;;;5006916;28;20262;-93
2022/01/08 11:38:10;;;;;;;26.13;20.45;;;3.70;99.90;;;;;;5025395;28;20043;-90
2022/01/08 11:40:44;;;;;;;28.92;21.20;;;3.70;99.90;;;;;;5001688;28;20051;-90
2022/01/08 11:43:22;;;;;;;27.58;20.88;;;3.60;99.90;;;;;;5009885;28;20059;-92
2022/01/08 11:46:00;;;;;;;29.77;21.45;;;3.70;99.90;;;;;;5016196;28;20087;-91
2022/01/08 11:48:42;;;;;;;28.17;22.40;;;3.70;99.90;;;;;;5009174;28;20039;-92
2022/01/08 11:51:13;;;;;;;34.13;24.73;;;3.70;99.90;;;;;;4994933;28;20449;-92
2022/01/08 11:53:53;;;;;;;34.63;25.55;;;3.80;99.90;;;;;;4998506;28;20872;-87
2022/01/08 11:56:28;;;;;;;30.13;24.52;;;3.70;99.90;;;;;;5017819;28;20051;-84
2022/01/08 11:59:12;;;;;;;32.72;25.75;;;3.70;99.90;;;;;;5026617;28;20040;-90
2022/01/08 12:02:03;;;;;;;35.25;26.83;;;3.70;99.90;;;;;;5006189;28;20045;-96
2022/01/08 12:04:54;;;;;;;33.08;26.33;;;3.70;99.90;;;;;;5015721;28;20550;-95
2022/01/08 12:07:36;;;;;;;38.17;27.95;;;3.70;99.90;;;;;;5008185;28;20139;-90
2022/01/08 12:10:25;;;;;;;37.38;28.52;;;3.70;99.90;;;;;;5006282;28;20059;-89
2022/01/08 12:12:53;;;;;;;37.45;28.35;;;3.80;99.90;;;;;;5007407;28;20512;-89
2022/01/08 12:15:40;;;;;;;35.70;25.90;;;3.90;99.90;;;;;;5020778;28;20679;-95
2022/01/08 12:18:21;;;;;;;34.13;25.73;;;3.80;99.90;;;;;;5015239;28;20052;-93
2022/01/08 12:20:52;;;;;;;32.35;25.55;;;3.80;99.90;;;;;;5014869;28;20562;-93
2022/01/08 12:23:37;;;;;;;32.38;25.17;;;3.80;99.90;;;;;;5017937;28;20075;-94
2022/01/08 12:26:21;;;;;;;37.72;25.95;;;3.90;99.90;;;;;;5028756;28;20427;-89
2022/01/08 12:28:47;;;;;;;36.45;26.15;;;3.90;99.90;;;;;;5005819;28;20097;-91
2022/01/08 12:31:22;;;;;;;33.08;26.20;;;4.00;99.90;;;;;;5008714;28;20217;-87
2022/01/08 12:34:31;;;;;;;37.97;27.83;;;3.90;99.90;;;;;;5007156;28;20051;-90
2022/01/08 12:37:14;;;;;;;39.45;28.80;;;4.00;99.90;;;;;;5014825;28;20125;-94
2022/01/08 12:39:43;;;;;;;39.08;28.15;;;4.00;99.90;;;;;;5015846;28;20044;-90
2022/01/08 12:42:21;;;;;;;38.70;28.05;;;4.00;99.90;;;;;;5014722;28;20044;-92
2022/01/08 12:45:27;;;;;;;37.13;27.50;;;3.90;99.90;;;;;;5029622;28;20440;-94
2022/01/08 12:48:06;;;;;;;40.03;27.45;;;3.90;99.90;;;;;;5022949;28;20044;-94
2022/01/08 12:51:05;;;;;;;36.63;26.65;;;3.90;99.90;;;;;;5023666;28;20449;-95
2022/01/08 12:53:34;;;;;;;40.33;28.15;;;3.90;99.90;;;;;;5025592;28;20152;-92
2022/01/08 12:56:02;;;;;;;39.42;26.23;;;3.90;99.90;;;;;;4985657;28;20056;-88
2022/01/08 12:58:53;;;;;;;;;;;3.90;99.90;;;;;;5026013;28;20052;-91
2022/01/08 13:01:30;;;;;;;36.45;24.67;;;3.90;99.90;;;;;;5026223;28;20236;-90
2022/01/08 13:04:00;;;;;;;42.90;25.55;;;3.90;99.90;;;;;;5008795;28;20036;-91
2022/01/08 13:06:54;;;;;;;38.80;26.23;;;4.00;99.90;;;;;;5024324;28;20097;-93
2022/01/08 13:09:27;;;;;;;47.33;25.33;;;3.90;99.90;;;;;;5007792;28;20059;-91